Ddr Corp (DDR) Latest Bloomsberg Price


Mffais Ranking #2254 Overall / #82 Industry
Industry: Reit

Number of Companies: 188 (Ranking #878 Overall/#52 Industry)
Inflow: $ 263,509 (K) (Ranking #469 Overall/#26 Industry)
Outflow: $ -304,870 (K)
Mffais Flow: $ -41,361 (K) (Ranking #2254 Overall/#82 Industry)


Receive a FREE weekly executive review of stocks moving into the top 10, taking the top industy spot or moving up within their industry. Sent directly to your Inbox every Saturday. Sign up today and get last week's review immediately sent to you.

We value and respect your privacy. Please read our Terms and Conditions which states our firm commitment to your privacy. Your email address will not be shared with a third party, nor will it be sold or used for purposes other than subscription for the weekly review.

Owner CPOR Shares Action Qty Chg Invested (K) Total Current Value (K)
Apg Asset Management Us Inc 2016-09-30 3,935,000 New Holding 3,935,000 $ 76,260 $ 76,260
Shinko Asset Management Co Ltd 2016-09-30 12,559,714 Added More 2,221,054 $ 43,044 $ 243,407
Nuveen Asset Management Llc 2016-09-30 3,635,206 Added More 1,228,968 $ 23,817 $ 70,450
Thrivent Financial For Lutherans 2016-09-30 1,319,686 Added More 1,170,910 $ 22,692 $ 25,575
Sumitomo Mitsui Asset Management Company Ltd 2016-09-30 934,995 Added More 810,886 $ 15,714 $ 18,120
Cbre Clarion Securities Llc 2016-09-30 15,859,425 Added More 618,974 $ 11,995 $ 307,355
Advantus Capital Management Inc 2016-09-30 1,143,200 Added More 561,500 $ 10,881 $ 22,155
Teachers Advisors Inc 2016-09-30 2,831,465 Added More 496,371 $ 9,619 $ 54,873
Krv Capital Lp 2016-09-30 950,000 Added More 417,842 $ 8,097 $ 18,411
Brc Investment Management Llc 2016-09-30 403,660 New Holding 403,660 $ 7,822 $ 7,822
Echo Street Capital Management Llc 2016-09-30 240,730 New Holding 240,730 $ 4,665 $ 4,665
Clinton Group Inc 2016-09-30 430,805 Added More 235,792 $ 4,569 $ 8,349
Guggenheim Capital Llc 2016-09-30 205,604 Added More 151,091 $ 2,928 $ 3,984
Pensionfund Dsm Netherlands 2016-09-30 110,000 New Holding 110,000 $ 2,131 $ 2,131
Rational Advisors Llc 2016-09-30 85,700 New Holding 85,700 $ 1,660 $ 1,660
Panagora Asset Management Inc 2016-09-30 103,430 Added More 58,704 $ 1,137 $ 2,004
Princeton Alpha Management Lp 2016-09-30 147,355 Added More 53,254 $ 1,032 $ 2,855
Legal General Group Plc 2016-09-30 791,031 Added More 44,395 $ 860 $ 15,330
Convergence Investment Partners Llc 2016-09-30 44,089 New Holding 44,089 $ 854 $ 854
Sei Investments Co 2016-09-30 1,106,101 Added More 42,276 $ 819 $ 21,436
Pensionfund Sabic 2016-09-30 42,000 New Holding 42,000 $ 813 $ 813
Northern Trust Corp 2016-09-30 3,175,883 Added More 40,556 $ 785 $ 61,548
Bridgewater Associates Lp 2016-09-30 38,900 New Holding 38,900 $ 753 $ 753
Pacad Investment Ltd 2016-09-30 43,200 Added More 38,400 $ 744 $ 837
Cubist Systematic Strategies Llc 2016-09-30 66,730 Added More 37,806 $ 732 $ 1,293
Security Capital Research Management Inc 2016-09-30 3,164,730 Added More 32,499 $ 629 $ 61,332
Dynamic Capital Management Ltd 2016-09-30 30,879 New Holding 30,879 $ 598 $ 598
Quantitative Investment Management Llc 2016-09-30 89,400 Added More 29,800 $ 577 $ 1,732
Ngam Advisors L P 2016-09-30 178,337 Added More 26,603 $ 515 $ 3,456
Dimensional Fund Advisors Lp 2016-09-30 4,136,521 Added More 25,548 $ 495 $ 80,165
Globeflex Capital L P 2016-09-30 126,543 Added More 25,260 $ 489 $ 2,452
Peak6 Investments L P 2016-09-30 22,600 New Holding 22,600 $ 437 $ 437
Rhumbline Advisers 2016-09-30 277,957 Added More 20,898 $ 405 $ 5,386
Verition Fund Management Llc 2016-09-30 56,433 Added More 20,549 $ 398 $ 1,093
Mizuho Asset Management Co Ltd 2016-09-30 148,910 Added More 18,231 $ 353 $ 2,885
Blackrock Investment Management Llc 2016-09-30 273,334 Added More 17,984 $ 348 $ 5,297
New York State Common Retirement Fund 2016-09-30 739,500 Added More 17,500 $ 339 $ 14,331
Mizuho Trust Banking Co Ltd 2016-09-30 75,915 Added More 16,851 $ 326 $ 1,471
Parametric Portfolio Associates Llc 2016-09-30 398,547 Added More 14,795 $ 286 $ 7,723
Nisa Investment Advisors Llc 2016-09-30 69,760 Added More 14,300 $ 277 $ 1,351
Us Bancorp De 2016-09-30 16,534 Added More 12,580 $ 243 $ 320
Kcg Holdings Inc 2016-09-30 92,667 Added More 11,516 $ 223 $ 1,795
Mutual Of America Capital Management Llc 2016-09-30 43,173 Added More 11,490 $ 222 $ 836
Tudor Investment Corp Et Al 2016-09-30 25,136 Added More 10,566 $ 204 $ 487
Keeley Asset Management Corp 2016-09-30 97,715 Added More 8,600 $ 166 $ 1,893
Two Sigma Securities Llc 2016-09-30 45,077 Added More 6,840 $ 132 $ 873
Squarepoint Ops Llc 2016-09-30 31,000 Added More 6,535 $ 126 $ 600
Delta Lloyd Nv 2016-09-30 68,882 Added More 6,383 $ 123 $ 1,334
California State Teachers Retirement System 2016-09-30 675,343 Added More 5,700 $ 110 $ 13,088
Fort Washington Investment Advisors Inc Oh 2016-09-30 31,000 Added More 5,500 $ 106 $ 600
World Asset Management Inc 2016-09-30 19,928 Added More 5,033 $ 97 $ 386
Aperio Group Llc 2016-09-30 82,229 Added More 4,433 $ 85 $ 1,593
Fuller Thaler Asset Management Inc 2016-09-30 4,200 New Holding 4,200 $ 81 $ 81
Pacer Advisors Inc 2016-09-30 42,938 Added More 4,064 $ 78 $ 832
Bailard Inc 2016-09-30 29,100 Added More 4,000 $ 77 $ 563
Kbc Group Nv 2016-09-30 137,623 Added More 3,661 $ 70 $ 2,667
Pnc Financial Services Group Inc 2016-09-30 9,181 Added More 3,044 $ 58 $ 177
Cadence Capital Management Llc 2016-09-30 17,712 Added More 2,731 $ 52 $ 343
M T Bank Corp 2016-09-30 101,131 Added More 2,323 $ 45 $ 1,959
Veritable L P 2016-09-30 31,957 Added More 2,001 $ 38 $ 619
Foresters Investment Management Company Inc 2016-09-30 26,976 Added More 1,900 $ 36 $ 522
Bronfman E L Rothschild L P 2016-09-30 2,072 Added More 1,680 $ 32 $ 40
State Of Alaska Department Of Revenue 2016-09-30 120,520 Added More 1,460 $ 28 $ 2,335
Mitsubishi Ufj Kokusai Asset Management Co Ltd 2016-09-30 50,959 Added More 1,253 $ 24 $ 987
Zurcher Kantonalbank Zurich Cantonalbank 2016-09-30 78,166 Added More 1,153 $ 22 $ 1,514
Utah Retirement Systems 2016-09-30 68,696 Added More 1,000 $ 19 $ 1,331
Next Financial Group Inc 2016-09-30 1,011 Added More 811 $ 15 $ 19
Beech Hill Advisors Inc 2016-09-30 192,450 Added More 650 $ 12 $ 3,729
Advisor Group Inc 2016-09-30 2,419 Added More 502 $ 9 $ 46
Kemper Corp Master Retirement Trust 2016-09-30 34,130 Added More 450 $ 8 $ 661
William Blair Investment Management Llc 2016-09-30 34,334 Added More 422 $ 8 $ 665
Woodmont Investment Counsel Llc 2016-09-30 278 New Holding 278 $ 5 $ 5
1st Global Advisors Inc 2016-09-30 12,962 Added More 248 $ 4 $ 251
Comerica Bank 2016-09-30 14,633 Added More 218 $ 4 $ 283
Bessemer Group Inc 2016-09-30 202 New Holding 202 $ 3 $ 3
Smithfield Trust Co 2016-09-30 104 New Holding 104 $ 2 $ 2
Acrospire Investment Management Llc 2016-09-30 2,000 Added More 100 $ 1 $ 38
Ifp Advisors Inc 2016-09-30 4,048 Added More 87 $ 1 $ 78
Nationwide Fund Advisors 2016-09-30 30,134 Added More 56 $ 1 $ 583
Washington Trust Bank 2016-09-30 50 New Holding 50 $ 0 $ 0
Howe Rusling Inc 2016-09-30 536 Added More 6 $ 0 $ 10
New Mexico Educational Retirement Board 2016-09-30 45,689 No Change 0 $ 0 $ 885
Synovus Financial Corp 2016-09-30 30 No Change 0 $ 0 $ 0
Fifth Third Bancorp 2016-09-30 1,620 No Change 0 $ 0 $ 31
Honeywell International Inc 2016-09-30 150,000 No Change 0 $ 0 $ 2,907
Amica Mutual Insurance Co 2016-09-30 28,000 No Change 0 $ 0 $ 542
Amica Pension Fund Board Of Trustees 2016-09-30 21,000 No Change 0 $ 0 $ 406
Delta Asset Management Llc Tn 2016-09-30 2,135 No Change 0 $ 0 $ 41
American National Insurance Co Tx 2016-09-30 14,186 No Change 0 $ 0 $ 274
Thompson Davis Co Inc 2016-09-30 214 No Change 0 $ 0 $ 4
Cibc Asset Management Inc 2016-09-30 11,682 No Change 0 $ 0 $ 226
First New York Securities Llc Ny 2016-09-30 650 No Change 0 $ 0 $ 12
Gateway Investment Advisers Llc 2016-09-30 14,563 No Change 0 $ 0 $ 282
Goodwin Daniel L 2016-09-30 73,994 No Change 0 $ 0 $ 1,434
Whittier Trust Co 2016-09-30 6,593 No Change 0 $ 0 $ 127
Rmr Advisors Llc 2016-09-30 62,000 No Change 0 $ 0 $ 1,201
Alpine Woods Capital Investors Llc 2016-09-30 25,075 No Change 0 $ 0 $ 485
Sterling Capital Management Llc 2016-09-30 49,600 No Change 0 $ 0 $ 961
Alpha Windward Llc 2016-09-30 1,618 No Change 0 $ 0 $ 31
Forward Management Llc 2016-09-30 19,500 No Change 0 $ 0 $ 377
Employees Retirement System Of Texas 2016-09-30 287,400 No Change 0 $ 0 $ 5,569
Financial Architects Inc 2016-09-30 126 No Change 0 $ 0 $ 2
Old Mutual Customised Solutions Proprietary Ltd 2016-09-30 6,700 No Change 0 $ 0 $ 129
Qs Investors Llc 2016-09-30 27 No Change 0 $ 0 $ 0
Independent Order Of Foresters 2016-09-30 43,964 No Change 0 $ 0 $ 852
Bartlett Co Llc 2016-09-30 365 No Change 0 $ 0 $ 7
Carroll Financial Associates Inc 2016-09-30 136 No Change 0 $ 0 $ 2
Winfield Associates Inc 2016-09-30 160 No Change 0 $ 0 $ 3
Parkwood Llc 2016-09-30 27,620 No Change 0 $ 0 $ 535
Capital Advisors Ltd Llc 2016-09-30 5,688 No Change 0 $ 0 $ 110
Amica Retiree Medical Trust 2016-09-30 3,300 No Change 0 $ 0 $ 63
Integrated Wealth Management 2016-09-30 265 No Change 0 $ 0 $ 5
Quadrant Capital Group Llc 2016-09-30 2,316 No Change 0 $ 0 $ 44
Proficio Capital Partners Llc 2016-09-30 80 No Change 0 $ 0 $ 1
Nn Investment Partners Holdings N V 2016-09-30 72,533 No Change 0 $ 0 $ 1,405
Sunbelt Securities Inc 2016-09-30 0 Sold All -13 $ -0 $ 0
Kanaly Trust Co 2016-09-30 449 Sold Some -16 $ -0 $ 8
Advisory Services Network Llc 2016-09-30 0 Sold All -25 $ -0 $ 0
Profund Advisors Llc 2016-09-30 18,070 Sold Some -263 $ -5 $ 350
Cutler Group Lp 2016-09-30 9,400 Sold Some -300 $ -5 $ 182
Msi Financial Services Inc 2016-09-30 1,268 Sold Some -499 $ -9 $ 24
Springbok Capital Management Llc 2016-09-30 400 Sold Some -500 $ -9 $ 7
American International Group Inc 2016-09-30 9,550 Sold Some -749 $ -14 $ 185
Axa 2016-09-30 0 Sold All -763 $ -14 $ 0
Sumitomo Mitsui Trust Holdings Inc 2016-09-30 220,355 Sold Some -832 $ -16 $ 4,270
Point72 Asia Hong Kong Ltd 2016-09-30 1,200 Sold Some -900 $ -17 $ 23
Blackrock Japan Co Ltd 2016-09-30 15,158 Sold Some -967 $ -18 $ 293
Ibm Retirement Fund 2016-09-30 29,159 Sold Some -1,922 $ -37 $ 565
Checchi Capital Advisers Llc 2016-09-30 0 Sold All -2,423 $ -46 $ 0
Carnegie Capital Asset Management Llc 2016-09-30 47,677 Sold Some -2,719 $ -52 $ 923
Tower Research Capital Llc Trc 2016-09-30 4,496 Sold Some -3,719 $ -72 $ 87
Dalton Greiner Hartman Maher Co 2016-09-30 17,285 Sold Some -4,015 $ -77 $ 334
Teachers Insurance Annuity Association Of America 2016-09-30 328,803 Sold Some -4,323 $ -83 $ 6,372
Eii Capital Management Inc 2016-09-30 12,700 Sold Some -4,600 $ -89 $ 246
Nomura Asset Management Co Ltd 2016-09-30 214,237 Sold Some -5,209 $ -100 $ 4,151
Kennedy Capital Management Inc 2016-09-30 179,045 Sold Some -7,769 $ -150 $ 3,469
Dynamic Technology Lab Private Ltd 2016-09-30 12,042 Sold Some -8,890 $ -172 $ 233
Ladenburg Thalmann Financial Services Inc 2016-09-30 6,604 Sold Some -9,429 $ -182 $ 127
Proshare Advisors Llc 2016-09-30 69,178 Sold Some -10,556 $ -204 $ 1,340
Kempen Capital Management N V 2016-09-30 130,022 Sold Some -10,645 $ -206 $ 2,519
Advisors Asset Management Inc 2016-09-30 0 Sold All -11,102 $ -215 $ 0
Creative Planning 2016-09-30 80,282 Sold Some -11,144 $ -215 $ 1,555
Presima Inc 2016-09-30 206,550 Sold Some -11,900 $ -230 $ 4,002
Hancock Holding Co 2016-09-30 0 Sold All -12,310 $ -238 $ 0
Eaton Vance Management 2016-09-30 0 Sold All -13,200 $ -255 $ 0
Rafferty Asset Management Llc 2016-09-30 19,758 Sold Some -13,399 $ -259 $ 382
Gsa Capital Partners Llp 2016-09-30 0 Sold All -13,498 $ -261 $ 0
Teacher Retirement System Of Texas 2016-09-30 305,468 Sold Some -14,728 $ -285 $ 5,919
Timber Hill Llc 2016-09-30 0 Sold All -14,924 $ -289 $ 0
Continental Advisors Llc 2016-09-30 18,000 Sold Some -15,000 $ -290 $ 348
Pioneer Investment Management Inc 2016-09-30 156,700 Sold Some -17,200 $ -333 $ 3,036
Landscape Capital Management L L C 2016-09-30 150,400 Sold Some -17,800 $ -344 $ 2,914
Fox Run Management L L C 2016-09-30 0 Sold All -18,100 $ -350 $ 0
Swiss National Bank 2016-09-30 502,000 Sold Some -18,800 $ -364 $ 9,728
Amp Capital Investors Ltd 2016-09-30 120,294 Sold Some -19,800 $ -383 $ 2,331
Hsbc Holdings Plc 2016-09-30 37,768 Sold Some -20,866 $ -404 $ 731
Bluecrest Capital Management Ltd 2016-09-30 0 Sold All -21,232 $ -411 $ 0
Exane Derivatives 2016-09-30 1 Sold Some -22,117 $ -428 $ 0
United Capital Financial Advisers Llc 2016-09-30 0 Sold All -23,018 $ -446 $ 0
Jane Street Group Llc 2016-09-30 0 Sold All -24,410 $ -473 $ 0
Quadrature Capital Ltd 2016-09-30 0 Sold All -24,539 $ -475 $ 0
Invictus Rg 2016-09-30 813 Sold Some -24,781 $ -480 $ 15
Gideon Capital Advisors Inc 2016-09-30 25,378 Sold Some -27,039 $ -524 $ 491
Connor Clark Lunn Investment Management Ltd 2016-09-30 0 Sold All -37,500 $ -726 $ 0
State Of New Jersey Common Pension Fund D 2016-09-30 230,000 Sold Some -40,000 $ -775 $ 4,457
Boothbay Fund Management Llc 2016-09-30 0 Sold All -54,884 $ -1,063 $ 0
I G Investment Management Ltd 2016-09-30 0 Sold All -55,084 $ -1,067 $ 0
Envestnet Asset Management Inc 2016-09-30 11,883 Sold Some -55,768 $ -1,080 $ 230
Blackstone Group L P 2016-09-30 536,916 Sold Some -63,460 $ -1,229 $ 10,405
Sg Americas Securities Llc 2016-09-30 12,770 Sold Some -64,093 $ -1,242 $ 247
Cornerstone Capital Management Holdings Llc 2016-09-30 187,052 Sold Some -66,622 $ -1,291 $ 3,625
Walleye Trading Llc 2016-09-30 148,358 Sold Some -74,195 $ -1,437 $ 2,875
Diam Co Ltd 2016-09-30 957,630 Sold Some -74,657 $ -1,446 $ 18,558
Capital Fund Management S A 2016-09-30 0 Sold All -83,401 $ -1,616 $ 0
Stevens Capital Management Lp 2016-09-30 200,030 Sold Some -88,159 $ -1,708 $ 3,876
Quantbot Technologies Lp 2016-09-30 28,355 Sold Some -109,778 $ -2,127 $ 549
Retirement Systems Of Alabama 2016-09-30 228,193 Sold Some -115,807 $ -2,244 $ 4,422
Strs Ohio 2016-09-30 900,557 Sold Some -125,241 $ -2,427 $ 17,452
Richard Bernstein Advisors Llc 2016-09-30 0 Sold All -145,824 $ -2,826 $ 0
Loeb Partners Corp 2016-09-30 0 Sold All -160,100 $ -3,102 $ 0
Blackrock Inc 2016-09-30 438,672 Sold Some -218,218 $ -4,229 $ 8,501
A R T Advisors Llc 2016-09-30 0 Sold All -223,101 $ -4,323 $ 0
Westpac Banking Corp 2016-09-30 248,409 Sold Some -265,962 $ -5,154 $ 4,814
Adelante Capital Management Llc 2016-09-30 2,378,618 Sold Some -298,248 $ -5,780 $ 46,097
Weiss Multi-Strategy Advisers Llc 2016-09-30 500,000 Sold Some -350,000 $ -6,783 $ 9,690
Emerald Acquisition Ltd 2016-09-30 695,421 Sold Some -465,595 $ -9,023 $ 13,477
Pggm Investments 2016-09-30 2,820,000 Sold Some -3,751,976 $ -72,713 $ 54,651
Lasalle Investment Management Securities Llc 2016-09-30 0 Sold All -8,250,573 $ -159,896 $ 0